Terminal Aerodrome Forecast
Issued by NWS

Home | Current Version | Previous Version | Text Only | Print | Product List | Glossary On
Versions: 1 2 3 4 5 6 7 8 9 10 11 12 13 14 15 16 17 18 19
000
FTUS43 KPAH 191300 AAB
TAFCGI
TAF AMD
KCGI 191350Z 1914/2012 00000KT 1/4SM FG VV002
     FM191430 VRB03KT 2SM BR SCT002
     FM191500 20003KT P6SM FEW025 SCT250
     FM200700 00000KT 3SM BR BKN120=

USA.gov is the U.S. government's official web portal to all federal, state and local government web resources and services.